Antonito, CO

4:17 AM MDT on October 01, 2014 (GMT -0600)
San Luis Valley Regional / Bergman Field | Change Station
CLOSE
Current Station
Airport
Location: Alamosa,
Elevation: 7543 ft
Nearby Weather Stations

Elev 7543 ft 37.44 °N, 105.86 °W | Updated 25 minutes ago

Clear
Clear
35 °F
Feels Like 35 °F
N
0
Wind Variable Wind from North

Today
High -- | Low -- °F
--% Chance of Precip.
Yesterday
High -- | Low -- °F
Precip. -- in
7:00 AM 6:48 PM
Waxing Crescent, 46% visible
Pressure 29.88 in
Visibility 10.0 miles
Clouds Clear
Dew Point 31 °F
Humidity 85%
Rainfall 0.00 in
Snow Depth 1 in , 0 in , 2 in
UV 0 out of 12
Pollen 4.60 out of 12
Air Quality Not available.
Flu Activity Not available.
METAR KALS 010952Z AUTO 00000KT 10SM CLR 02/M01 A3003 RMK AO2 SLP118 T00171006

More Conditions Fewer Conditions

Pressure 29.88 in
Visibility 10.0 miles
Clouds Clear
Dew Point 31 °F
Humidity 85%
Rainfall 0.00 in
Snow Depth 1 in , 0 in , 2 in
UV 0 out of 12
Pollen 4.60 out of 12
Air Quality Not available.
Flu Activity Not available.
METAR KALS 010952Z AUTO 00000KT 10SM CLR 02/M01 A3003 RMK AO2 SLP118 T00171006

More Conditions Fewer Conditions

10-Day Weather Forecast

Almanac

Astronomy

Oct. 01, 2014 Rise Set
Actual Time 7:00 AM MDT 6:48 PM MDT
Civil Twilight 6:34 AM MDT 7:14 PM MDT
Nautical Twilight 6:04 AM MDT 7:44 PM MDT
Astronomical Twilight 5:33 AM MDT 8:14 PM MDT
Moon 1:57 PM MDT No Moon Set
Length of Visible Light 12h 39m
Length of Day
11h 47m
Tomorrow will be 2m 21s shorter.
Waxing Crescent, 46% of the Moon is Illuminated
Today
Waxing Crescent
Oct 1
First Quarter
Oct 8
Full
Oct 15
Last Quarter
Oct 23
New

Today's Extremes

State Highs State Lows

Community

WunderPhotos

Upload Photos

1,757,905 photos uploaded!

WunderBlogs® & News

Nearby

Snow Depth

Station Depth Elevation
University Camp 1 in 10300 ft
Mineral Creek 0 in 10040 ft
Buffalo Park 0 in 9240 ft
Brumley 0 in 10600 ft
Upper San Juan 2 in 10130 ft

Earthquake Activity

City Distance Mag. Time & Date
Trinidad, Colorado 72 miles 2.9 3:55 AM MDT
2014-09-30
Minimum magnitude displayed is 2.5.

Coastal Water Temperatures

Place Temperature
No Stations Reporting

Nearby Weather Stations